createdAt,value
2019-06-20T00:05:02.976Z,23
2019-06-20T00:20:03.005Z,22.9
2019-06-20T00:35:03.004Z,22.9
2019-06-20T00:50:03.190Z,22.9
2019-06-20T01:05:03.474Z,22.8
2019-06-20T01:20:03.890Z,22.8
2019-06-20T01:35:03.284Z,22.8
2019-06-20T01:50:04.154Z,22.8
2019-06-20T02:05:03.167Z,22.7
2019-06-20T02:20:03.285Z,22.7
2019-06-20T02:35:03.637Z,22.7
2019-06-20T02:50:05.410Z,22.7
2019-06-20T03:05:03.855Z,22.7
2019-06-20T03:20:02.845Z,22.6
2019-06-20T03:35:02.938Z,22.6
2019-06-20T03:50:03.109Z,22.5
2019-06-20T04:05:02.980Z,22.5
2019-06-20T04:20:04.228Z,22.5
2019-06-20T04:35:04.292Z,22.5
2019-06-20T04:50:04.552Z,22.4
2019-06-20T05:05:04.796Z,22.4
2019-06-20T05:20:05.125Z,22.4
2019-06-20T05:35:03.566Z,22.5
2019-06-20T05:50:03.850Z,22.5
2019-06-20T06:05:03.022Z,22.6
2019-06-20T06:20:03.211Z,22.6
2019-06-20T06:35:03.378Z,22.7
2019-06-20T06:50:04.626Z,22.8
2019-06-20T07:05:04.191Z,22.8
2019-06-20T07:20:03.374Z,22.9
2019-06-20T07:35:03.388Z,22.9
2019-06-20T07:50:05.007Z,22.9
2019-06-20T08:05:03.415Z,22.9
2019-06-20T08:20:04.059Z,23
2019-06-20T08:35:04.203Z,23
2019-06-20T08:50:05.912Z,23.1
2019-06-20T09:20:03.576Z,23.1
2019-06-20T09:35:04.007Z,23.2
2019-06-20T09:50:03.259Z,23.2
2019-06-20T10:05:03.883Z,23.3
2019-06-20T10:20:03.046Z,23.3
2019-06-20T10:35:03.108Z,23.3
2019-06-20T10:50:03.498Z,23.4
2019-06-20T11:05:03.550Z,23.4
2019-06-20T11:20:04.569Z,23.5
2019-06-20T11:35:03.730Z,23.5
2019-06-20T11:50:04.607Z,23.6
2019-06-20T12:05:04.179Z,23.6
2019-06-20T12:20:03.677Z,23.7
2019-06-20T12:35:04.934Z,23.7
2019-06-20T12:50:03.272Z,23.7
2019-06-20T13:05:03.594Z,23.7
2019-06-20T13:20:04.446Z,23.7
2019-06-20T13:35:03.930Z,23.6
2019-06-20T13:50:03.788Z,23.6
2019-06-20T14:05:04.729Z,23.5
2019-06-20T14:20:04.313Z,23.4
2019-06-20T14:35:04.526Z,23.4
2019-06-20T14:50:05.375Z,23.3
2019-06-20T15:05:04.420Z,23.2
2019-06-20T15:20:05.609Z,23.1
2019-06-20T15:35:04.538Z,23.1
2019-06-20T15:50:05.359Z,23
2019-06-20T16:05:04.562Z,23.2
2019-06-20T16:20:04.805Z,23.3
2019-06-20T16:35:06.130Z,23.6
2019-06-20T16:50:03.301Z,23.7
2019-06-20T17:05:03.989Z,24
2019-06-20T17:20:03.642Z,24.1
2019-06-20T17:35:05.080Z,24.3
2019-06-20T17:50:03.632Z,24.2
2019-06-20T18:05:04.968Z,24.1
2019-06-20T18:20:02.892Z,24
2019-06-20T18:35:02.966Z,23.9
2019-06-20T18:50:03.779Z,23.9
2019-06-20T19:05:04.571Z,23.7
2019-06-20T19:20:05.111Z,23.6
2019-06-20T19:35:03.015Z,23.4
2019-06-20T19:50:02.915Z,23.3
2019-06-20T20:05:17.662Z,23.1
2019-06-20T20:20:03.285Z,23
2019-06-20T20:35:03.829Z,22.9
2019-06-20T20:50:03.148Z,22.8
2019-06-20T21:05:03.126Z,22.7
2019-06-20T21:20:03.416Z,22.6
2019-06-20T21:35:05.971Z,22.5
2019-06-20T21:50:02.934Z,22.5
2019-06-20T22:05:02.992Z,22.4
2019-06-20T22:20:03.066Z,22.4
2019-06-20T22:35:02.952Z,22.3
2019-06-20T22:50:03.169Z,22.2
2019-06-20T23:05:03.007Z,22.2
2019-06-20T23:20:04.177Z,22.1
2019-06-20T23:35:03.297Z,22.1
2019-06-20T23:50:03.498Z,22.1
